createdAt,value
2019-03-15T00:00:03.955Z,3.37
2019-03-15T00:02:34.437Z,4.28
2019-03-15T00:05:05.136Z,2.90
2019-03-15T00:07:35.500Z,2.70
2019-03-15T00:10:08.706Z,1.80
2019-03-15T00:12:39.343Z,2.60
2019-03-15T00:15:10.173Z,2.65
2019-03-15T00:17:40.699Z,4.25
2019-03-15T00:20:11.058Z,2.95
2019-03-15T00:22:41.516Z,2.98
2019-03-15T00:25:13.157Z,2.02
2019-03-15T00:27:43.759Z,4.28
2019-03-15T00:30:14.186Z,1.87
2019-03-15T00:32:44.603Z,3.58
2019-03-15T00:35:15.347Z,2.70
2019-03-15T00:37:45.871Z,2.50
2019-03-15T00:40:16.858Z,2.83
2019-03-15T00:42:47.336Z,2.35
2019-03-15T00:45:17.683Z,3.10
2019-03-15T00:47:48.123Z,4.37
2019-03-15T00:50:18.581Z,2.60
2019-03-15T00:52:48.945Z,2.25
2019-03-15T00:55:19.818Z,3.87
2019-03-15T00:57:50.381Z,3.67
2019-03-15T01:00:20.931Z,4.10
2019-03-15T01:02:51.400Z,3.33
2019-03-15T01:05:21.809Z,6.42
2019-03-15T01:07:52.389Z,3.37
2019-03-15T01:10:22.872Z,3.02
2019-03-15T01:12:53.363Z,4.25
2019-03-15T01:15:23.802Z,4.60
2019-03-15T01:17:54.233Z,2.77
2019-03-15T01:20:24.785Z,3.15
2019-03-15T01:22:55.170Z,4.53
2019-03-15T01:25:25.692Z,2.85
2019-03-15T01:27:56.160Z,2.75
2019-03-15T01:30:26.660Z,4.22
2019-03-15T01:32:57.191Z,3.55
2019-03-15T01:35:27.642Z,3.27
2019-03-15T01:37:57.997Z,4.28
2019-03-15T01:40:28.453Z,3.80
2019-03-15T01:42:58.783Z,4.42
2019-03-15T01:45:29.414Z,3.08
2019-03-15T01:47:59.948Z,3.60
2019-03-15T01:50:30.419Z,4.17
2019-03-15T01:53:00.965Z,3.90
2019-03-15T01:55:31.469Z,3.55
2019-03-15T01:58:01.874Z,4.40
2019-03-15T02:00:32.312Z,3.45
2019-03-15T02:03:02.956Z,3.65
2019-03-15T02:05:33.445Z,2.77
2019-03-15T02:08:03.976Z,3.42
2019-03-15T02:10:34.391Z,4.95
2019-03-15T02:13:04.852Z,3.27
2019-03-15T02:15:35.278Z,4.25
2019-03-15T02:18:05.820Z,4.65
2019-03-15T02:20:36.331Z,4.12
2019-03-15T02:23:06.891Z,4.05
2019-03-15T02:25:37.432Z,4.20
2019-03-15T02:28:07.897Z,3.40
2019-03-15T02:30:38.367Z,3.85
2019-03-15T02:33:08.779Z,2.17
2019-03-15T02:35:39.241Z,3.90
2019-03-15T02:38:09.749Z,5.37
2019-03-15T02:40:40.255Z,4.10
2019-03-15T02:43:10.706Z,4.22
2019-03-15T02:45:41.235Z,4.60
2019-03-15T02:48:11.917Z,4.40
2019-03-15T02:50:43.454Z,4.03
2019-03-15T02:53:13.889Z,4.25
2019-03-15T02:55:44.443Z,4.97
2019-03-15T02:58:14.952Z,5.45
2019-03-15T03:00:45.665Z,4.08
2019-03-15T03:03:16.278Z,3.77
2019-03-15T03:05:46.885Z,3.12
2019-03-15T03:08:17.337Z,2.17
2019-03-15T03:10:48.023Z,3.85
2019-03-15T03:13:19.663Z,4.85
2019-03-15T03:15:51.315Z,3.95
2019-03-15T03:18:22.628Z,3.70
2019-03-15T03:20:53.281Z,4.72
2019-03-15T03:23:24.015Z,4.55
2019-03-15T03:25:54.707Z,4.37
2019-03-15T03:28:25.248Z,5.12
2019-03-15T03:30:55.950Z,5.58
2019-03-15T03:33:26.618Z,2.85
2019-03-15T03:35:57.264Z,3.65
2019-03-15T03:38:27.904Z,2.90
2019-03-15T03:40:58.792Z,3.20
2019-03-15T03:43:29.373Z,3.50
2019-03-15T03:46:00.014Z,4.22
2019-03-15T03:48:30.813Z,5.10
2019-03-15T03:51:01.524Z,3.10
2019-03-15T03:53:32.230Z,3.62
2019-03-15T03:56:02.838Z,3.75
2019-03-15T03:58:33.354Z,3.60
2019-03-15T04:01:07.325Z,3.77
2019-03-15T04:03:36.499Z,2.25
2019-03-15T04:06:07.117Z,5.87
2019-03-15T04:08:37.701Z,3.47
2019-03-15T04:11:08.176Z,3.83
2019-03-15T04:13:38.919Z,4.53
2019-03-15T04:16:09.620Z,3.85
2019-03-15T04:18:40.151Z,3.80
2019-03-15T04:21:10.684Z,2.90
2019-03-15T04:23:41.241Z,3.37
2019-03-15T04:26:11.871Z,4.20
2019-03-15T04:28:42.519Z,2.33
2019-03-15T04:31:13.304Z,3.42
2019-03-15T04:33:43.674Z,5.45
2019-03-15T04:36:14.467Z,3.60
2019-03-15T04:38:45.052Z,3.62
2019-03-15T04:41:15.654Z,4.33
2019-03-15T04:43:46.154Z,4.87
2019-03-15T04:46:16.788Z,4.10
2019-03-15T04:48:47.376Z,4.75
2019-03-15T04:51:17.909Z,4.72
2019-03-15T04:53:48.742Z,4.17
2019-03-15T04:56:19.541Z,2.80
2019-03-15T04:58:50.072Z,3.45
2019-03-15T05:01:20.693Z,4.37
2019-03-15T05:03:51.228Z,7.47
2019-03-15T05:06:21.872Z,5.87
2019-03-15T05:08:52.478Z,5.22
2019-03-15T05:11:23.088Z,4.22
2019-03-15T05:13:53.600Z,4.08
2019-03-15T05:16:24.313Z,3.62
2019-03-15T05:18:55.037Z,3.20
2019-03-15T05:21:25.735Z,3.12
2019-03-15T05:23:56.507Z,5.12
2019-03-15T05:26:27.062Z,3.27
2019-03-15T05:28:57.731Z,4.30
2019-03-15T05:31:28.282Z,5.35
2019-03-15T05:33:58.775Z,3.70
2019-03-15T05:36:29.306Z,4.70
2019-03-15T05:38:59.799Z,3.60
2019-03-15T05:41:30.870Z,3.58
2019-03-15T05:44:01.582Z,3.95
2019-03-15T05:46:32.846Z,5.62
2019-03-15T05:49:04.392Z,3.12
2019-03-15T05:51:35.694Z,6.42
2019-03-15T05:54:07.366Z,2.22
2019-03-15T05:56:39.849Z,4.42
2019-03-15T05:59:11.420Z,4.55
2019-03-15T06:01:42.460Z,4.05
2019-03-15T06:04:13.378Z,5.50
2019-03-15T06:06:43.953Z,4.15
2019-03-15T06:09:14.666Z,5.25
2019-03-15T06:11:45.280Z,5.03
2019-03-15T06:14:16.099Z,4.30
2019-03-15T06:16:47.003Z,4.78
2019-03-15T06:19:17.679Z,4.20
2019-03-15T06:21:48.324Z,5.15
2019-03-15T06:24:18.952Z,5.37
2019-03-15T06:26:49.903Z,6.17
2019-03-15T06:29:21.080Z,4.00
2019-03-15T06:31:52.619Z,5.58
2019-03-15T06:34:23.453Z,5.47
2019-03-15T06:36:55.418Z,4.45
2019-03-15T06:39:26.503Z,4.95
2019-03-15T06:41:57.255Z,8.10
2019-03-15T06:44:28.265Z,5.10
2019-03-15T06:46:59.019Z,9.08
2019-03-15T06:49:29.704Z,6.15
2019-03-15T06:52:00.595Z,7.08
2019-03-15T06:54:31.622Z,7.25
2019-03-15T06:57:02.199Z,8.40
2019-03-15T06:59:32.934Z,8.13
2019-03-15T07:02:03.660Z,10.05
2019-03-15T07:04:34.931Z,11.60
2019-03-15T07:07:05.441Z,31.02
2019-03-15T07:09:36.368Z,12.60
2019-03-15T07:12:09.675Z,11.83
2019-03-15T07:14:39.260Z,13.62
2019-03-15T07:17:10.523Z,16.73
2019-03-15T07:19:42.097Z,14.18
2019-03-15T07:22:12.945Z,13.30
2019-03-15T07:24:44.044Z,18.95
2019-03-15T07:27:15.107Z,18.70
2019-03-15T07:29:45.901Z,18.73
2019-03-15T07:32:16.497Z,12.28
2019-03-15T07:34:47.397Z,11.73
2019-03-15T07:37:18.028Z,12.25
2019-03-15T07:39:48.483Z,14.13
2019-03-15T07:42:19.049Z,18.00
2019-03-15T07:44:49.480Z,12.25
2019-03-15T07:47:20.138Z,11.88
2019-03-15T07:49:50.655Z,9.20
2019-03-15T07:52:21.125Z,17.05
2019-03-15T07:54:51.995Z,10.48
2019-03-15T07:57:22.610Z,10.55
2019-03-15T07:59:53.300Z,11.75
2019-03-15T08:02:23.969Z,10.38
2019-03-15T08:04:54.883Z,7.60
2019-03-15T08:07:35.731Z,10.65
2019-03-15T08:09:58.274Z,18.48
2019-03-15T08:12:29.253Z,17.23
2019-03-15T08:14:59.913Z,12.00
2019-03-15T08:17:30.714Z,10.72
2019-03-15T08:20:01.338Z,9.08
2019-03-15T08:22:32.044Z,9.73
2019-03-15T08:25:02.820Z,8.73
2019-03-15T08:27:33.427Z,9.05
2019-03-15T08:30:03.821Z,8.83
2019-03-15T08:32:34.193Z,9.75
2019-03-15T08:35:04.993Z,12.33
2019-03-15T08:37:35.413Z,12.55
2019-03-15T08:40:06.727Z,7.33
2019-03-15T08:42:37.506Z,6.97
2019-03-15T08:45:11.184Z,7.80
2019-03-15T08:47:41.915Z,8.40
2019-03-15T08:50:15.408Z,6.67
2019-03-15T08:52:46.429Z,9.20
2019-03-15T08:55:17.054Z,9.85
2019-03-15T08:57:48.057Z,7.67
2019-03-15T09:00:18.616Z,5.80
2019-03-15T09:02:49.483Z,5.95
2019-03-15T09:05:20.021Z,9.88
2019-03-15T09:07:50.692Z,7.22
2019-03-15T09:10:23.651Z,5.97
2019-03-15T09:12:53.746Z,5.70
2019-03-15T09:15:24.461Z,6.95
2019-03-15T09:17:54.967Z,7.50
2019-03-15T09:20:30.339Z,12.13
2019-03-15T09:22:58.175Z,9.48
2019-03-15T09:25:29.157Z,6.28
2019-03-15T09:27:59.767Z,5.45
2019-03-15T09:30:30.734Z,13.45
2019-03-15T09:33:03.158Z,10.93
2019-03-15T09:35:34.172Z,5.90
2019-03-15T09:38:04.685Z,4.65
2019-03-15T09:40:35.339Z,7.83
2019-03-15T09:43:06.255Z,7.00
2019-03-15T09:45:37.187Z,7.17
2019-03-15T09:48:07.821Z,9.80
2019-03-15T09:50:50.565Z,8.28
2019-03-15T09:53:11.051Z,8.95
2019-03-15T09:55:41.807Z,5.80
2019-03-15T09:58:12.561Z,4.83
2019-03-15T10:00:43.042Z,6.40
2019-03-15T10:03:21.999Z,12.15
2019-03-15T10:05:45.827Z,4.62
2019-03-15T10:08:16.337Z,7.90
2019-03-15T10:10:49.234Z,7.67
2019-03-15T10:13:19.246Z,14.65
2019-03-15T10:15:49.923Z,6.65
2019-03-15T10:18:20.670Z,7.05
2019-03-15T10:20:51.354Z,23.30
2019-03-15T10:23:22.088Z,6.97
2019-03-15T10:25:52.723Z,7.17
2019-03-15T10:28:23.365Z,6.22
2019-03-15T10:30:54.085Z,15.95
2019-03-15T10:33:25.011Z,6.85
2019-03-15T10:35:55.678Z,5.95
2019-03-15T10:38:26.183Z,7.80
2019-03-15T10:40:56.860Z,6.00
2019-03-15T10:43:27.441Z,6.62
2019-03-15T10:45:58.286Z,4.95
2019-03-15T10:48:28.927Z,5.62
2019-03-15T10:50:59.639Z,6.87
2019-03-15T10:53:30.233Z,4.72
2019-03-15T10:56:01.072Z,5.95
2019-03-15T10:58:31.549Z,4.92
2019-03-15T11:01:02.195Z,5.12
2019-03-15T11:03:32.773Z,7.00
2019-03-15T11:06:03.539Z,5.78
2019-03-15T11:08:34.252Z,4.22
2019-03-15T11:11:04.902Z,7.35
2019-03-15T11:13:36.141Z,5.53
2019-03-15T11:16:06.987Z,4.17
2019-03-15T11:18:37.915Z,5.83
2019-03-15T11:21:08.531Z,4.42
2019-03-15T11:23:39.299Z,5.72
2019-03-15T11:26:13.893Z,9.08
2019-03-15T11:28:42.559Z,5.70
2019-03-15T11:31:13.265Z,9.58
2019-03-15T11:33:47.069Z,6.65
2019-03-15T11:36:15.947Z,7.20
2019-03-15T11:38:46.622Z,6.90
2019-03-15T11:41:17.179Z,9.35
2019-03-15T11:43:47.862Z,8.08
2019-03-15T11:46:18.682Z,7.72
2019-03-15T11:48:49.301Z,12.82
2019-03-15T11:51:19.912Z,8.45
2019-03-15T11:53:50.609Z,6.55
2019-03-15T11:56:26.919Z,8.00
2019-03-15T11:58:53.385Z,14.83
2019-03-15T12:01:24.038Z,7.17
2019-03-15T12:03:54.657Z,8.25
2019-03-15T12:06:25.248Z,7.50
2019-03-15T12:08:56.056Z,8.90
2019-03-15T12:11:26.551Z,8.18
2019-03-15T12:13:57.301Z,12.35
2019-03-15T12:16:27.837Z,6.95
2019-03-15T12:18:58.557Z,8.15
2019-03-15T12:21:29.124Z,14.83
2019-03-15T12:23:59.810Z,20.45
2019-03-15T12:26:39.780Z,14.28
2019-03-15T12:29:02.755Z,9.55
2019-03-15T12:31:33.841Z,12.28
2019-03-15T12:34:04.602Z,8.20
2019-03-15T12:36:37.008Z,9.88
2019-03-15T12:39:08.790Z,10.82
2019-03-15T12:41:39.786Z,10.50
2019-03-15T12:44:10.764Z,10.85
2019-03-15T12:46:41.789Z,9.25
2019-03-15T12:49:12.375Z,9.65
2019-03-15T12:51:43.296Z,13.62
2019-03-15T12:54:13.951Z,9.60
2019-03-15T12:56:53.702Z,6.65
2019-03-15T12:59:23.346Z,11.05
2019-03-15T13:01:53.886Z,8.33
2019-03-15T13:04:24.679Z,20.35
2019-03-15T13:06:55.823Z,13.20
2019-03-15T13:09:26.450Z,13.80
2019-03-15T13:11:57.771Z,7.33
2019-03-15T13:14:28.499Z,11.85
2019-03-15T13:16:59.151Z,12.65
2019-03-15T13:19:29.750Z,13.40
2019-03-15T13:22:00.344Z,9.38
2019-03-15T13:24:31.111Z,7.67
2019-03-15T13:27:07.354Z,8.73
2019-03-15T13:29:34.020Z,7.85
2019-03-15T13:32:05.504Z,7.08
2019-03-15T13:34:38.506Z,8.18
2019-03-15T13:37:09.034Z,6.62
2019-03-15T13:39:39.516Z,8.43
2019-03-15T13:42:11.949Z,5.75
2019-03-15T13:44:42.489Z,10.00
2019-03-15T13:47:12.885Z,8.58
2019-03-15T13:49:43.860Z,8.55
2019-03-15T13:52:14.656Z,9.60
2019-03-15T13:54:45.458Z,7.78
2019-03-15T13:57:21.105Z,6.85
2019-03-15T13:59:48.997Z,8.48
2019-03-15T14:02:19.903Z,6.50
2019-03-15T14:04:50.855Z,5.65
2019-03-15T14:07:21.613Z,7.28
2019-03-15T14:09:52.125Z,4.45
2019-03-15T14:12:22.750Z,8.25
2019-03-15T14:14:53.301Z,3.25
2019-03-15T14:17:24.174Z,4.45
2019-03-15T14:19:54.569Z,5.40
2019-03-15T14:22:25.210Z,4.85
2019-03-15T14:24:55.847Z,5.20
2019-03-15T14:27:37.051Z,4.60
2019-03-15T14:29:58.682Z,4.87
2019-03-15T14:32:29.485Z,5.97
2019-03-15T14:35:00.008Z,5.00
2019-03-15T14:37:31.505Z,5.08
2019-03-15T14:40:02.203Z,3.92
2019-03-15T14:42:33.161Z,4.80
2019-03-15T14:45:04.193Z,5.42
2019-03-15T14:47:34.844Z,4.78
2019-03-15T14:50:06.636Z,3.87
2019-03-15T14:52:37.416Z,4.03
2019-03-15T14:55:07.954Z,3.45
2019-03-15T14:57:51.159Z,4.70
2019-03-15T15:00:12.580Z,4.87
2019-03-15T15:02:43.203Z,4.75
2019-03-15T15:05:13.968Z,5.60
2019-03-15T15:07:44.666Z,5.40
2019-03-15T15:10:15.402Z,5.20
2019-03-15T15:12:46.181Z,3.45
2019-03-15T15:15:17.094Z,4.45
2019-03-15T15:17:47.666Z,4.97
2019-03-15T15:20:18.349Z,4.40
2019-03-15T15:22:48.856Z,2.45
2019-03-15T15:25:19.354Z,4.62
2019-03-15T15:27:50.146Z,3.92
2019-03-15T15:30:20.866Z,4.03
2019-03-15T15:32:51.563Z,3.92
2019-03-15T15:35:22.124Z,6.67
2019-03-15T15:37:52.864Z,6.40
2019-03-15T15:40:23.502Z,3.90
2019-03-15T15:42:54.389Z,3.72
2019-03-15T15:45:25.083Z,3.45
2019-03-15T15:47:55.790Z,4.30
2019-03-15T15:50:26.532Z,4.05
2019-03-15T15:52:57.252Z,2.72
2019-03-15T15:55:27.922Z,4.83
2019-03-15T15:57:58.993Z,3.25
2019-03-15T16:00:29.954Z,2.85
2019-03-15T16:03:00.672Z,3.42
2019-03-15T16:05:31.413Z,1.85
2019-03-15T16:08:02.232Z,4.97
2019-03-15T16:10:33.045Z,3.85
2019-03-15T16:13:16.589Z,2.83
2019-03-15T16:15:36.079Z,3.37
2019-03-15T16:18:06.792Z,2.08
2019-03-15T16:20:37.607Z,3.65
2019-03-15T16:23:08.234Z,3.45
2019-03-15T16:25:39.401Z,2.08
2019-03-15T16:28:10.124Z,3.52
2019-03-15T16:30:40.868Z,3.25
2019-03-15T16:33:11.685Z,5.15
2019-03-15T16:35:42.315Z,3.75
2019-03-15T16:38:13.325Z,4.53
2019-03-15T16:40:44.156Z,5.42
2019-03-15T16:43:14.966Z,4.75
2019-03-15T16:45:45.740Z,5.28
2019-03-15T16:48:16.637Z,6.72
2019-03-15T16:50:47.427Z,3.52
2019-03-15T16:53:18.303Z,3.52
2019-03-15T16:55:49.654Z,6.37
2019-03-15T16:58:21.053Z,5.37
2019-03-15T17:00:52.161Z,3.72
2019-03-15T17:03:22.955Z,4.17
2019-03-15T17:05:53.890Z,2.75
2019-03-15T17:08:28.417Z,3.30
2019-03-15T17:11:00.056Z,2.95
2019-03-15T17:13:31.193Z,5.17
2019-03-15T17:16:02.538Z,2.87
2019-03-15T17:18:33.542Z,5.60
2019-03-15T17:21:04.909Z,5.05
2019-03-15T17:23:35.695Z,2.95
2019-03-15T17:26:06.666Z,3.08
2019-03-15T17:28:37.403Z,4.90
2019-03-15T17:31:10.195Z,4.17
2019-03-15T17:33:40.645Z,4.55
2019-03-15T17:36:11.369Z,9.93
2019-03-15T17:38:42.186Z,8.68
2019-03-15T17:41:13.111Z,3.20
2019-03-15T17:43:44.038Z,4.58
2019-03-15T17:46:15.176Z,3.70
2019-03-15T17:48:45.930Z,4.58
2019-03-15T17:51:16.869Z,4.00
2019-03-15T17:53:48.016Z,9.03
2019-03-15T17:56:18.615Z,7.87
2019-03-15T17:58:49.399Z,3.70
2019-03-15T18:01:19.948Z,6.62
2019-03-15T18:03:50.762Z,7.87
2019-03-15T18:06:21.607Z,4.37
2019-03-15T18:08:52.449Z,5.78
2019-03-15T18:11:23.997Z,4.03
2019-03-15T18:13:54.780Z,3.27
2019-03-15T18:16:25.981Z,3.35
2019-03-15T18:18:58.738Z,2.35
2019-03-15T18:21:30.963Z,2.40
2019-03-15T18:24:02.101Z,7.55
2019-03-15T18:26:33.755Z,4.37
2019-03-15T18:29:07.184Z,4.58
2019-03-15T18:31:38.265Z,3.17
2019-03-15T18:34:09.472Z,3.05
2019-03-15T18:36:42.904Z,6.22
2019-03-15T18:39:12.849Z,3.58
2019-03-15T18:41:43.761Z,5.67
2019-03-15T18:44:14.842Z,4.55
2019-03-15T18:46:45.734Z,16.00
2019-03-15T18:49:18.709Z,17.32
2019-03-15T18:51:49.719Z,10.60
2019-03-15T18:54:20.816Z,55.85
2019-03-15T18:56:51.781Z,27.02
2019-03-15T18:59:23.033Z,16.77
2019-03-15T19:01:54.282Z,15.10
2019-03-15T19:04:25.283Z,11.22
2019-03-15T19:06:56.230Z,11.90
2019-03-15T19:09:27.313Z,15.25
2019-03-15T19:11:59.651Z,10.65
2019-03-15T19:14:30.567Z,13.38
2019-03-15T19:17:01.250Z,11.12
2019-03-15T19:19:32.138Z,10.65
2019-03-15T19:22:02.837Z,7.40
2019-03-15T19:24:33.682Z,8.78
2019-03-15T19:27:04.310Z,7.00
2019-03-15T19:29:35.944Z,9.20
2019-03-15T19:32:06.999Z,9.85
2019-03-15T19:34:37.644Z,8.75
2019-03-15T19:37:08.303Z,8.73
2019-03-15T19:39:38.985Z,10.88
2019-03-15T19:42:09.653Z,10.75
2019-03-15T19:44:40.072Z,8.65
2019-03-15T19:47:10.890Z,8.85
2019-03-15T19:49:41.577Z,7.45
2019-03-15T19:52:12.206Z,6.28
2019-03-15T19:54:42.733Z,7.72
2019-03-15T19:57:13.649Z,7.03
2019-03-15T19:59:44.575Z,7.20
2019-03-15T20:02:15.363Z,7.62
2019-03-15T20:04:46.112Z,7.47
2019-03-15T20:07:17.028Z,7.78
2019-03-15T20:09:47.915Z,9.68
2019-03-15T20:12:19.329Z,9.53
2019-03-15T20:14:50.239Z,8.50
2019-03-15T20:17:20.968Z,10.32
2019-03-15T20:19:52.353Z,6.45
2019-03-15T20:22:23.566Z,12.33
2019-03-15T20:24:54.708Z,19.00
2019-03-15T20:27:25.362Z,16.07
2019-03-15T20:29:56.303Z,21.23
2019-03-15T20:32:26.922Z,25.00
2019-03-15T20:34:57.637Z,16.48
2019-03-15T20:37:28.762Z,14.98
2019-03-15T20:40:00.114Z,16.93
2019-03-15T20:42:30.966Z,17.25
2019-03-15T20:45:01.657Z,17.05
2019-03-15T20:47:32.379Z,11.78
2019-03-15T20:50:03.341Z,9.60
2019-03-15T20:52:34.103Z,9.03
2019-03-15T20:55:05.024Z,11.43
2019-03-15T20:57:35.640Z,7.62
2019-03-15T21:00:07.232Z,8.50
2019-03-15T21:02:37.859Z,7.17
2019-03-15T21:05:08.953Z,8.28
2019-03-15T21:07:39.674Z,7.75
2019-03-15T21:10:10.915Z,8.03
2019-03-15T21:12:41.557Z,8.45
2019-03-15T21:15:12.572Z,6.15
2019-03-15T21:17:43.454Z,10.18
2019-03-15T21:20:14.450Z,9.00
2019-03-15T21:22:45.185Z,7.83
2019-03-15T21:25:15.962Z,7.60
2019-03-15T21:27:53.831Z,7.40
2019-03-15T21:30:19.678Z,5.87
2019-03-15T21:32:50.423Z,8.33
2019-03-15T21:35:21.304Z,6.47
2019-03-15T21:37:52.049Z,9.45
2019-03-15T21:40:22.887Z,7.08
2019-03-15T21:42:53.574Z,6.87
2019-03-15T21:45:24.410Z,6.97
2019-03-15T21:47:55.528Z,5.97
2019-03-15T21:50:26.049Z,4.40
2019-03-15T21:52:57.016Z,6.22
2019-03-15T21:55:27.743Z,5.87
2019-03-15T21:57:58.260Z,6.00
2019-03-15T22:00:29.523Z,6.95
2019-03-15T22:03:00.423Z,4.87
2019-03-15T22:05:31.101Z,4.90
2019-03-15T22:08:01.790Z,4.08
2019-03-15T22:10:32.628Z,4.42
2019-03-15T22:13:03.123Z,4.58
2019-03-15T22:15:33.885Z,4.35
2019-03-15T22:18:04.615Z,5.05
2019-03-15T22:20:35.153Z,5.33
2019-03-15T22:23:05.873Z,5.33
2019-03-15T22:25:36.517Z,4.50
2019-03-15T22:28:06.978Z,4.25
2019-03-15T22:30:38.636Z,5.47
2019-03-15T22:33:09.299Z,4.37
2019-03-15T22:35:40.274Z,3.90
2019-03-15T22:38:10.699Z,3.95
2019-03-15T22:40:41.187Z,4.90
2019-03-15T22:43:11.717Z,3.30
2019-03-15T22:45:42.256Z,3.60
2019-03-15T22:48:12.905Z,4.83
2019-03-15T22:50:43.476Z,3.20
2019-03-15T22:53:14.180Z,2.85
2019-03-15T22:55:45.002Z,3.02
2019-03-15T22:58:15.662Z,4.08
2019-03-15T23:00:46.674Z,2.67
2019-03-15T23:03:20.785Z,4.20
2019-03-15T23:05:51.791Z,3.77
2019-03-15T23:08:24.662Z,3.85
2019-03-15T23:10:55.739Z,3.62
2019-03-15T23:13:28.464Z,3.30
2019-03-15T23:15:59.212Z,3.40
2019-03-15T23:18:29.913Z,6.10
2019-03-15T23:21:00.551Z,4.75
2019-03-15T23:23:31.220Z,8.53
2019-03-15T23:26:02.251Z,6.35
2019-03-15T23:28:33.015Z,7.72
2019-03-15T23:31:03.665Z,5.50
2019-03-15T23:33:34.308Z,7.03
2019-03-15T23:36:04.955Z,5.95
2019-03-15T23:38:35.607Z,9.13
2019-03-15T23:41:06.193Z,9.80
2019-03-15T23:43:36.742Z,8.68
2019-03-15T23:46:07.194Z,10.40
2019-03-15T23:48:37.730Z,10.10
2019-03-15T23:51:08.223Z,13.53
2019-03-15T23:53:38.856Z,10.93
2019-03-15T23:56:09.400Z,14.28
2019-03-15T23:58:39.947Z,13.93
